Time;durP1;ratioP1;P1;durP2;ratioP2;P2;SDS_P1;SDS_P2;PMS_P1;PMS_P2;Temp;Humidity;BMP_temperature;BMP_pressure;BME280_temperature;BME280_humidity;BME280_pressure;Samples;Min_cycle;Max_cycle;Signal;HPM_P1;HPM_P2
2022/01/30 00:01:15;;;;;;;28.30;7.60;;;;;;;;;;5054454;28;20479;-79
2022/01/30 00:03:41;;;;;;;36.13;8.57;;;;;;;;;;5051288;28;20470;-81
2022/01/30 00:06:07;;;;;;;47.57;7.97;;;;;;;;;;5056261;28;20992;-80
2022/01/30 00:08:34;;;;;;;30.30;6.67;;;;;;;;;;5056264;28;20850;-79
2022/01/30 00:11:10;;;;;;;31.20;7.83;;;;;;;;;;5054060;28;22033;-79
2022/01/30 00:13:37;;;;;;;24.97;6.60;;;;;;;;;;5057892;28;20461;-80
2022/01/30 00:16:06;;;;;;;27.77;6.43;;;;;;;;;;5060613;28;20573;-80
2022/01/30 00:18:50;;;;;;;37.80;9.30;;;;;;;;;;5060790;28;20464;-80
2022/01/30 00:21:30;;;;;;;34.90;10.10;;;;;;;;;;5060491;28;20475;-79
2022/01/30 00:24:01;;;;;;;30.70;7.20;;;;;;;;;;5060391;28;20443;-80
2022/01/30 00:26:31;;;;;;;38.37;7.87;;;;;;;;;;5060628;28;20478;-80
2022/01/30 00:28:58;;;;;;;27.13;6.57;;;;;;;;;;5058440;28;20459;-81
2022/01/30 00:31:25;;;;;;;39.40;9.50;;;;;;;;;;5061144;28;20458;-79
2022/01/30 00:33:51;;;;;;;33.07;7.20;;;;;;;;;;5060331;28;20500;-80
2022/01/30 00:36:18;;;;;;;26.57;6.43;;;;;;;;;;5054185;28;20479;-79
2022/01/30 00:38:44;;;;;;;28.13;7.23;;;;;;;;;;5058948;28;20448;-81
2022/01/30 00:41:10;;;;;;;32.90;7.50;;;;;;;;;;5063660;28;20479;-80
2022/01/30 00:43:38;;;;;;;30.50;7.43;;;;;;;;;;5064108;28;20521;-80
2022/01/30 00:46:04;;;;;;;36.80;6.90;;;;;;;;;;5065120;28;20467;-80
2022/01/30 00:48:30;;;;;;;25.17;7.73;;;;;;;;;;5063329;28;20455;-80
2022/01/30 00:50:57;;;;;;;25.53;6.27;;;;;;;;;;5061642;28;20467;-80
2022/01/30 00:53:23;;;;;;;26.03;5.93;;;;;;;;;;5064119;28;20831;-80
2022/01/30 00:55:49;;;;;;;32.70;5.63;;;;;;;;;;5061725;28;20488;-80
2022/01/30 00:58:15;;;;;;;37.73;7.90;;;;;;;;;;5063592;28;20684;-80
2022/01/30 01:00:43;;;;;;;23.97;6.23;;;;;;;;;;5061101;28;20479;-79
2022/01/30 01:03:09;;;;;;;33.00;8.60;;;;;;;;;;5061996;28;20968;-80
2022/01/30 01:05:37;;;;;;;44.17;7.17;;;;;;;;;;5062385;28;20487;-80
2022/01/30 01:08:11;;;;;;;32.23;6.43;;;;;;;;;;5063695;28;20495;-77
2022/01/30 01:10:41;;;;;;;17.20;5.30;;;;;;;;;;5063482;28;20521;-80
2022/01/30 01:13:39;;;;;;;26.23;6.47;;;;;;;;;;5061465;28;20463;-80
2022/01/30 01:24:32;;;;;;;26.97;7.10;;;;;;;;;;4982455;28;20514;-80
2022/01/30 01:26:58;;;;;;;28.50;5.60;;;;;;;;;;5045053;28;20463;-80
2022/01/30 01:29:25;;;;;;;23.33;6.00;;;;;;;;;;5061572;28;20470;-81
2022/01/30 01:31:52;;;;;;;30.37;5.87;;;;;;;;;;5058350;28;20463;-80
2022/01/30 01:34:33;;;;;;;30.77;6.40;;;;;;;;;;5057535;28;20464;-80
2022/01/30 01:37:00;;;;;;;17.40;5.17;;;;;;;;;;5061829;28;21233;-79
2022/01/30 01:39:27;;;;;;;23.80;7.00;;;;;;;;;;5060040;28;20472;-80
2022/01/30 01:41:53;;;;;;;16.53;6.53;;;;;;;;;;5061471;28;20466;-79
2022/01/30 01:44:28;;;;;;;30.00;6.20;;;;;;;;;;5061993;28;20530;-81
2022/01/30 01:46:55;;;;;;;33.23;7.00;;;;;;;;;;5064124;28;20859;-80
2022/01/30 01:49:27;;;;;;;28.50;6.73;;;;;;;;;;5058979;28;20476;-80
2022/01/30 01:52:14;;;;;;;25.97;6.27;;;;;;;;;;5061638;28;20490;-80
2022/01/30 01:54:40;;;;;;;23.93;5.73;;;;;;;;;;5060816;28;20482;-80
2022/01/30 01:57:07;;;;;;;22.10;6.80;;;;;;;;;;5060719;28;20447;-79
2022/01/30 01:59:33;;;;;;;33.53;6.97;;;;;;;;;;5061088;28;20522;-80
2022/01/30 02:02:02;;;;;;;31.20;7.90;;;;;;;;;;5063165;28;20444;-79
2022/01/30 02:04:28;;;;;;;39.70;7.70;;;;;;;;;;5061114;28;21075;-80
2022/01/30 02:07:09;;;;;;;41.90;9.30;;;;;;;;;;5057525;28;20541;-80
2022/01/30 02:09:37;;;;;;;43.33;8.83;;;;;;;;;;5057348;28;20517;-78
2022/01/30 02:12:03;;;;;;;36.97;6.53;;;;;;;;;;5057756;28;20455;-79
2022/01/30 02:14:41;;;;;;;30.47;8.97;;;;;;;;;;5061487;28;20476;-80
2022/01/30 02:25:38;;;;;;;45.67;9.80;;;;;;;;;;5060306;28;20466;-83
2022/01/30 02:28:09;;;;;;;34.33;8.20;;;;;;;;;;5059988;28;20578;-83
2022/01/30 02:30:38;;;;;;;31.60;9.00;;;;;;;;;;5059620;28;20474;-82
2022/01/30 02:33:05;;;;;;;39.03;9.83;;;;;;;;;;5061593;28;20460;-82
2022/01/30 02:35:31;;;;;;;32.17;8.33;;;;;;;;;;5060596;28;20474;-83
2022/01/30 02:38:00;;;;;;;37.00;8.70;;;;;;;;;;5062376;28;20531;-82
2022/01/30 02:40:29;;;;;;;29.27;8.80;;;;;;;;;;5060854;28;20467;-83
2022/01/30 02:42:55;;;;;;;37.97;8.83;;;;;;;;;;5060132;28;20459;-81
2022/01/30 02:45:25;;;;;;;33.67;7.23;;;;;;;;;;5063116;28;20472;-84
2022/01/30 02:47:58;;;;;;;30.30;7.63;;;;;;;;;;5061941;28;20558;-81
2022/01/30 02:50:36;;;;;;;31.27;7.40;;;;;;;;;;5074185;28;20462;-85
2022/01/30 02:53:07;;;;;;;37.00;8.77;;;;;;;;;;5080744;28;20494;-84
2022/01/30 02:55:33;;;;;;;34.90;8.60;;;;;;;;;;5083141;28;21243;-81
2022/01/30 02:58:00;;;;;;;51.13;11.20;;;;;;;;;;5077957;28;20447;-79
2022/01/30 03:00:26;;;;;;;39.57;9.40;;;;;;;;;;5078186;28;20478;-85
2022/01/30 03:02:53;;;;;;;24.83;6.50;;;;;;;;;;5081820;28;20854;-81
2022/01/30 03:05:19;;;;;;;28.27;6.50;;;;;;;;;;5079376;28;20477;-83
2022/01/30 03:07:45;;;;;;;39.87;8.07;;;;;;;;;;5079789;28;20980;-82
2022/01/30 03:10:14;;;;;;;44.53;8.87;;;;;;;;;;5081318;28;21000;-84
2022/01/30 03:12:40;;;;;;;21.23;6.17;;;;;;;;;;5081213;28;20457;-83
2022/01/30 03:15:07;;;;;;;29.60;7.80;;;;;;;;;;5080432;28;20474;-83
2022/01/30 03:17:34;;;;;;;31.30;8.50;;;;;;;;;;5082232;28;20479;-84
2022/01/30 03:20:00;;;;;;;45.50;7.77;;;;;;;;;;5080983;28;20846;-82
2022/01/30 03:22:27;;;;;;;38.87;8.07;;;;;;;;;;5082788;28;20443;-82
2022/01/30 03:24:53;;;;;;;29.93;6.67;;;;;;;;;;5080104;28;20911;-83
2022/01/30 03:27:21;;;;;;;29.73;8.80;;;;;;;;;;5082601;28;20876;-82
2022/01/30 03:29:51;;;;;;;38.30;7.33;;;;;;;;;;5081269;28;20497;-81
2022/01/30 03:32:17;;;;;;;37.53;7.53;;;;;;;;;;5079969;28;20463;-84
2022/01/30 03:34:44;;;;;;;33.50;6.57;;;;;;;;;;5080256;28;20478;-84
2022/01/30 03:37:10;;;;;;;36.40;8.73;;;;;;;;;;5082251;28;20504;-83
2022/01/30 03:39:36;;;;;;;40.03;6.83;;;;;;;;;;5082009;28;20474;-80
2022/01/30 03:42:03;;;;;;;34.00;7.90;;;;;;;;;;5083177;28;20443;-84
2022/01/30 03:44:30;;;;;;;33.47;8.13;;;;;;;;;;5081985;28;20479;-84
2022/01/30 03:46:56;;;;;;;49.23;8.37;;;;;;;;;;5080104;28;20475;-83
2022/01/30 03:49:23;;;;;;;36.03;8.13;;;;;;;;;;5081766;28;20490;-85
2022/01/30 03:51:49;;;;;;;30.40;7.23;;;;;;;;;;5083964;28;20454;-84
2022/01/30 03:54:15;;;;;;;34.97;8.17;;;;;;;;;;5082120;28;20461;-82
2022/01/30 03:56:42;;;;;;;41.83;7.97;;;;;;;;;;5078281;28;20494;-83
2022/01/30 03:59:08;;;;;;;36.20;8.10;;;;;;;;;;5076997;28;20454;-83
2022/01/30 04:01:37;;;;;;;30.17;8.30;;;;;;;;;;5079436;28;20451;-81
2022/01/30 04:04:04;;;;;;;22.23;7.53;;;;;;;;;;5076000;28;20491;-83
2022/01/30 04:06:30;;;;;;;29.50;7.20;;;;;;;;;;5079174;28;20951;-83
2022/01/30 04:08:56;;;;;;;33.70;7.10;;;;;;;;;;5078572;28;20458;-84
2022/01/30 04:11:24;;;;;;;35.03;7.60;;;;;;;;;;5075572;28;20455;-81
2022/01/30 04:13:50;;;;;;;29.53;7.63;;;;;;;;;;5081047;28;20947;-81
2022/01/30 04:16:17;;;;;;;33.03;9.20;;;;;;;;;;5080211;28;20473;-82
2022/01/30 04:18:44;;;;;;;33.70;9.00;;;;;;;;;;5083137;28;20532;-81
2022/01/30 04:21:11;;;;;;;33.00;7.80;;;;;;;;;;5080501;28;20496;-82
2022/01/30 04:23:39;;;;;;;32.40;8.00;;;;;;;;;;5081366;28;20504;-83
2022/01/30 04:26:05;;;;;;;30.83;7.60;;;;;;;;;;5080912;28;21105;-81
2022/01/30 04:28:32;;;;;;;35.33;8.37;;;;;;;;;;5082585;28;20454;-80
2022/01/30 04:30:58;;;;;;;37.93;9.03;;;;;;;;;;5080118;28;20479;-83
2022/01/30 04:33:25;;;;;;;39.23;8.80;;;;;;;;;;5082529;28;20462;-82
2022/01/30 04:35:53;;;;;;;55.97;9.33;;;;;;;;;;5079657;28;20474;-83
2022/01/30 04:38:26;;;;;;;37.10;9.77;;;;;;;;;;5082405;28;20457;-81
2022/01/30 04:52:28;;;;;;;37.40;7.53;;;;;;;;;;5080157;28;20878;-80
2022/01/30 04:57:45;;;;;;;29.00;6.50;;;;;;;;;;5079473;28;20474;-84
2022/01/30 05:00:26;;;;;;;31.83;7.00;;;;;;;;;;5082249;28;20847;-85
2022/01/30 05:03:00;;;;;;;23.37;6.57;;;;;;;;;;5082110;28;20458;-83
2022/01/30 05:05:46;;;;;;;30.10;8.60;;;;;;;;;;5081614;28;20994;-83
2022/01/30 05:08:14;;;;;;;28.00;8.13;;;;;;;;;;5082285;28;20454;-83
2022/01/30 05:10:41;;;;;;;29.10;8.57;;;;;;;;;;5079342;28;20498;-84
2022/01/30 05:13:11;;;;;;;31.30;7.17;;;;;;;;;;5082249;28;20450;-83
2022/01/30 05:15:38;;;;;;;39.20;7.90;;;;;;;;;;5080046;28;20912;-84
2022/01/30 05:18:04;;;;;;;21.70;6.50;;;;;;;;;;5079448;28;21171;-84
2022/01/30 05:20:31;;;;;;;31.80;7.67;;;;;;;;;;5081498;28;20482;-85
2022/01/30 05:22:57;;;;;;;34.30;8.73;;;;;;;;;;5080702;28;20442;-85
2022/01/30 05:25:25;;;;;;;34.23;7.67;;;;;;;;;;5080814;28;20505;-82
2022/01/30 05:27:52;;;;;;;29.17;9.07;;;;;;;;;;5079002;28;20540;-84
2022/01/30 05:30:18;;;;;;;36.33;9.73;;;;;;;;;;5079596;28;20487;-82
2022/01/30 05:32:45;;;;;;;54.50;10.53;;;;;;;;;;5082355;28;20450;-83
2022/01/30 05:35:11;;;;;;;32.73;8.90;;;;;;;;;;5080745;28;20536;-83
2022/01/30 05:37:39;;;;;;;36.87;9.10;;;;;;;;;;5081433;28;20466;-83
2022/01/30 05:40:06;;;;;;;42.33;8.50;;;;;;;;;;5079384;28;20471;-83
2022/01/30 05:42:35;;;;;;;40.70;12.13;;;;;;;;;;5079497;28;20473;-83
2022/01/30 05:45:11;;;;;;;62.87;10.77;;;;;;;;;;5080303;28;20487;-84
2022/01/30 05:47:44;;;;;;;33.87;8.70;;;;;;;;;;5082333;28;20465;-85
2022/01/30 05:50:11;;;;;;;47.50;9.30;;;;;;;;;;5078572;28;20482;-82
2022/01/30 05:52:38;;;;;;;35.27;8.50;;;;;;;;;;5082970;28;20461;-85
2022/01/30 05:55:04;;;;;;;30.30;8.60;;;;;;;;;;5080520;28;20470;-83
2022/01/30 05:57:31;;;;;;;33.07;8.53;;;;;;;;;;5079136;28;20487;-85
2022/01/30 05:59:58;;;;;;;45.37;10.30;;;;;;;;;;5079732;28;20503;-84
2022/01/30 06:02:24;;;;;;;39.37;8.90;;;;;;;;;;5080607;28;20472;-85
2022/01/30 06:04:51;;;;;;;34.73;8.13;;;;;;;;;;5080990;28;21018;-84
2022/01/30 06:07:21;;;;;;;30.50;7.50;;;;;;;;;;5078849;28;21061;-84
2022/01/30 06:09:47;;;;;;;33.90;8.70;;;;;;;;;;5077116;28;20485;-84
2022/01/30 06:12:14;;;;;;;33.17;6.67;;;;;;;;;;5080106;28;20458;-82
2022/01/30 06:14:41;;;;;;;30.03;7.03;;;;;;;;;;5079302;28;20462;-83
2022/01/30 06:17:08;;;;;;;30.07;6.93;;;;;;;;;;5080839;28;20481;-83
2022/01/30 06:19:35;;;;;;;27.03;6.80;;;;;;;;;;5080886;28;20459;-83
2022/01/30 06:22:01;;;;;;;34.97;7.37;;;;;;;;;;5080482;28;20512;-82
2022/01/30 06:24:27;;;;;;;28.80;6.73;;;;;;;;;;5081200;28;20474;-85
2022/01/30 06:26:53;;;;;;;31.50;7.30;;;;;;;;;;5080946;28;20470;-85
2022/01/30 06:29:19;;;;;;;27.53;6.20;;;;;;;;;;5077983;28;20469;-84
2022/01/30 06:31:46;;;;;;;37.43;8.40;;;;;;;;;;5080458;28;20456;-84
2022/01/30 06:34:13;;;;;;;29.40;6.80;;;;;;;;;;5079243;28;20817;-84
2022/01/30 06:36:40;;;;;;;22.47;7.27;;;;;;;;;;5080912;28;20499;-85
2022/01/30 06:39:06;;;;;;;30.93;6.97;;;;;;;;;;5081137;28;20909;-84
2022/01/30 06:41:32;;;;;;;33.17;6.40;;;;;;;;;;5082659;28;20499;-85
2022/01/30 06:43:59;;;;;;;22.20;5.23;;;;;;;;;;5078924;28;20451;-83
2022/01/30 06:46:25;;;;;;;28.87;5.87;;;;;;;;;;5082106;28;21048;-85
2022/01/30 06:48:51;;;;;;;34.37;7.30;;;;;;;;;;5079991;28;20452;-84
2022/01/30 06:51:19;;;;;;;35.03;6.27;;;;;;;;;;5080649;28;21063;-85
2022/01/30 06:53:45;;;;;;;17.47;5.30;;;;;;;;;;5081025;28;20451;-85
2022/01/30 06:56:12;;;;;;;27.83;5.67;;;;;;;;;;5079209;28;20474;-84
2022/01/30 06:58:38;;;;;;;28.00;5.43;;;;;;;;;;5081177;28;20447;-84
2022/01/30 07:01:04;;;;;;;22.53;5.43;;;;;;;;;;5079951;28;20498;-84
2022/01/30 07:03:30;;;;;;;18.77;5.33;;;;;;;;;;5081396;28;20458;-85
2022/01/30 07:05:56;;;;;;;32.00;6.20;;;;;;;;;;5080252;28;20532;-84
2022/01/30 07:08:24;;;;;;;25.53;6.07;;;;;;;;;;5082134;28;21098;-82
2022/01/30 07:10:50;;;;;;;26.77;5.33;;;;;;;;;;5081971;28;20501;-83
2022/01/30 07:13:17;;;;;;;22.00;5.47;;;;;;;;;;5080539;28;20459;-85
2022/01/30 07:15:43;;;;;;;30.60;6.40;;;;;;;;;;5081223;28;20478;-85
2022/01/30 07:18:09;;;;;;;34.40;6.87;;;;;;;;;;5075570;28;21053;-82
2022/01/30 07:20:35;;;;;;;25.67;6.00;;;;;;;;;;5080616;28;20563;-83
2022/01/30 07:23:02;;;;;;;21.30;4.60;;;;;;;;;;5081430;28;20467;-83
2022/01/30 07:25:29;;;;;;;22.67;5.20;;;;;;;;;;5082753;28;20497;-84
2022/01/30 07:27:56;;;;;;;18.30;6.00;;;;;;;;;;5082013;28;21005;-85
2022/01/30 07:30:22;;;;;;;12.77;5.77;;;;;;;;;;5081729;28;20465;-82
2022/01/30 07:32:48;;;;;;;27.20;7.87;;;;;;;;;;5080693;28;20514;-83
2022/01/30 07:35:14;;;;;;;27.07;5.60;;;;;;;;;;5081264;28;20516;-82
2022/01/30 07:37:41;;;;;;;21.07;5.30;;;;;;;;;;5078361;28;21037;-83
2022/01/30 07:40:07;;;;;;;28.20;5.10;;;;;;;;;;5081299;28;20473;-83
2022/01/30 07:42:35;;;;;;;27.93;6.50;;;;;;;;;;5082244;28;20507;-84
2022/01/30 07:45:04;;;;;;;28.27;6.87;;;;;;;;;;5077172;28;20481;-81
2022/01/30 07:47:30;;;;;;;21.17;6.17;;;;;;;;;;5078611;28;20482;-84
2022/01/30 07:49:57;;;;;;;21.50;5.33;;;;;;;;;;5082961;28;20496;-85
2022/01/30 07:52:23;;;;;;;22.60;8.17;;;;;;;;;;5084636;28;20461;-84
2022/01/30 07:54:50;;;;;;;30.47;8.83;;;;;;;;;;5085799;28;20528;-81
2022/01/30 07:57:17;;;;;;;22.90;6.20;;;;;;;;;;5086423;28;20518;-83
2022/01/30 07:59:44;;;;;;;28.53;6.43;;;;;;;;;;5086375;28;20564;-81
2022/01/30 08:02:11;;;;;;;29.43;7.67;;;;;;;;;;5081848;28;20503;-85
2022/01/30 08:04:37;;;;;;;29.23;6.40;;;;;;;;;;5082335;28;20470;-85
2022/01/30 08:07:04;;;;;;;26.17;6.97;;;;;;;;;;5086109;28;20463;-81
2022/01/30 08:09:30;;;;;;;34.80;7.27;;;;;;;;;;5076993;28;20466;-80
2022/01/30 08:11:57;;;;;;;51.30;7.20;;;;;;;;;;5078141;28;20829;-80
2022/01/30 08:14:23;;;;;;;23.10;6.87;;;;;;;;;;5081632;28;20494;-82
2022/01/30 08:16:51;;;;;;;29.23;7.40;;;;;;;;;;5100652;22;20501;-82
2022/01/30 08:19:19;;;;;;;44.93;8.67;;;;;;;;;;5069052;28;20458;-84
2022/01/30 08:21:47;;;;;;;31.57;8.10;;;;;;;;;;5069176;28;20447;-83
2022/01/30 08:24:13;;;;;;;40.17;8.97;;;;;;;;;;5071319;28;20439;-83
2022/01/30 08:26:39;;;;;;;31.07;8.20;;;;;;;;;;5065334;28;20510;-84
2022/01/30 08:29:06;;;;;;;33.80;9.00;;;;;;;;;;5050334;28;20474;-84
2022/01/30 08:31:32;;;;;;;28.40;7.90;;;;;;;;;;5052272;28;20489;-83
2022/01/30 08:33:59;;;;;;;38.97;9.90;;;;;;;;;;5050802;28;20505;-81
2022/01/30 08:36:26;;;;;;;39.30;8.60;;;;;;;;;;5052138;28;20483;-81
2022/01/30 08:38:52;;;;;;;31.07;8.07;;;;;;;;;;5053227;28;20444;-80
2022/01/30 08:41:18;;;;;;;31.23;8.67;;;;;;;;;;5053447;28;20820;-82
2022/01/30 08:43:44;;;;;;;26.83;8.40;;;;;;;;;;5052054;28;20445;-81
2022/01/30 08:46:13;;;;;;;42.90;7.50;;;;;;;;;;5052434;28;20494;-81
2022/01/30 08:48:39;;;;;;;31.40;8.97;;;;;;;;;;5053385;28;20483;-82
2022/01/30 08:51:07;;;;;;;35.30;8.20;;;;;;;;;;5051687;28;20464;-81
2022/01/30 08:53:33;;;;;;;29.53;7.40;;;;;;;;;;5053180;28;20466;-81
2022/01/30 08:56:00;;;;;;;35.50;9.97;;;;;;;;;;5052382;28;20499;-82
2022/01/30 08:58:26;;;;;;;43.73;10.87;;;;;;;;;;5052716;28;20488;-82
2022/01/30 09:00:52;;;;;;;53.30;10.47;;;;;;;;;;5052365;28;20477;-81
2022/01/30 09:03:18;;;;;;;30.33;9.10;;;;;;;;;;5052667;28;20818;-81
2022/01/30 09:05:45;;;;;;;45.70;10.50;;;;;;;;;;5051449;28;20824;-81
2022/01/30 09:08:13;;;;;;;33.13;8.90;;;;;;;;;;5052248;28;20455;-82
2022/01/30 09:10:39;;;;;;;39.07;9.80;;;;;;;;;;5051365;28;20481;-80
2022/01/30 09:13:06;;;;;;;39.13;8.90;;;;;;;;;;5053437;28;20444;-82
2022/01/30 09:15:37;;;;;;;40.60;11.27;;;;;;;;;;5051843;28;21008;-79
2022/01/30 09:18:08;;;;;;;46.80;10.07;;;;;;;;;;5053080;28;20483;-79
2022/01/30 09:20:34;;;;;;;42.70;9.07;;;;;;;;;;5053048;28;20469;-81
2022/01/30 09:23:00;;;;;;;24.07;7.57;;;;;;;;;;5053339;28;20505;-82
2022/01/30 09:25:28;;;;;;;35.70;10.37;;;;;;;;;;5052526;28;20480;-82
2022/01/30 09:27:54;;;;;;;33.63;9.77;;;;;;;;;;5051108;28;20476;-81
2022/01/30 09:30:20;;;;;;;37.60;9.27;;;;;;;;;;5050744;28;20533;-81
2022/01/30 09:32:47;;;;;;;35.67;9.47;;;;;;;;;;5052082;28;20513;-81
2022/01/30 09:35:13;;;;;;;37.13;9.43;;;;;;;;;;5051678;28;20479;-82
2022/01/30 09:37:39;;;;;;;34.93;8.43;;;;;;;;;;5051482;28;20527;-81
2022/01/30 09:40:07;;;;;;;24.73;8.00;;;;;;;;;;5051169;28;20473;-82
2022/01/30 09:42:34;;;;;;;44.23;9.30;;;;;;;;;;5051547;28;20508;-82
2022/01/30 09:45:04;;;;;;;44.77;11.20;;;;;;;;;;5050113;28;21004;-82
2022/01/30 09:47:30;;;;;;;37.77;8.90;;;;;;;;;;5051657;28;20478;-82
2022/01/30 09:49:57;;;;;;;47.60;10.23;;;;;;;;;;5050030;28;20472;-81
2022/01/30 09:52:23;;;;;;;40.27;9.43;;;;;;;;;;5050583;28;20447;-81
2022/01/30 09:54:50;;;;;;;33.93;8.20;;;;;;;;;;5048783;28;20475;-81
2022/01/30 09:57:16;;;;;;;51.17;9.50;;;;;;;;;;5051444;28;20488;-81
2022/01/30 09:59:44;;;;;;;49.07;10.13;;;;;;;;;;5050797;28;20488;-82
2022/01/30 10:02:12;;;;;;;32.83;9.73;;;;;;;;;;5050307;28;20709;-82
2022/01/30 10:04:39;;;;;;;46.17;10.37;;;;;;;;;;5050883;28;20490;-82
2022/01/30 10:07:11;;;;;;;38.50;10.10;;;;;;;;;;5051084;28;20460;-81
2022/01/30 10:09:43;;;;;;;46.37;10.47;;;;;;;;;;5050943;28;20507;-82
2022/01/30 10:12:14;;;;;;;48.70;10.67;;;;;;;;;;5050313;28;20456;-81
2022/01/30 10:14:51;;;;;;;46.23;11.33;;;;;;;;;;5052180;28;20483;-81
2022/01/30 10:17:25;;;;;;;45.87;10.80;;;;;;;;;;5050649;28;20538;-82
2022/01/30 10:19:59;;;;;;;43.40;12.63;;;;;;;;;;5044603;28;20981;-82
2022/01/30 10:22:25;;;;;;;44.93;9.90;;;;;;;;;;5049667;28;20463;-82
2022/01/30 10:24:52;;;;;;;29.70;10.13;;;;;;;;;;5050925;28;20480;-81
2022/01/30 10:27:19;;;;;;;42.80;8.57;;;;;;;;;;5050331;28;21004;-81
2022/01/30 10:29:45;;;;;;;42.33;9.10;;;;;;;;;;5048818;28;20517;-82
2022/01/30 10:32:13;;;;;;;43.27;11.07;;;;;;;;;;5049202;28;20472;-82
2022/01/30 10:34:40;;;;;;;38.43;10.07;;;;;;;;;;5053784;28;20481;-82
2022/01/30 10:37:18;;;;;;;41.47;9.50;;;;;;;;;;5052261;28;20548;-82
2022/01/30 10:39:54;;;;;;;41.10;9.27;;;;;;;;;;5047579;28;20483;-83
2022/01/30 10:42:34;;;;;;;43.37;9.17;;;;;;;;;;5050104;28;20491;-85
2022/01/30 10:45:01;;;;;;;42.37;9.37;;;;;;;;;;5049816;28;20495;-84
2022/01/30 10:47:30;;;;;;;43.03;8.93;;;;;;;;;;5051462;28;20464;-80
2022/01/30 10:49:56;;;;;;;35.60;10.10;;;;;;;;;;5050958;28;20496;-82
2022/01/30 10:52:23;;;;;;;37.17;9.67;;;;;;;;;;5049105;28;20455;-83
2022/01/30 10:54:50;;;;;;;34.83;9.90;;;;;;;;;;5047924;28;20475;-83
2022/01/30 10:57:17;;;;;;;43.80;9.97;;;;;;;;;;5047823;28;20486;-81
2022/01/30 10:59:46;;;;;;;39.47;9.43;;;;;;;;;;5050340;28;20484;-83
2022/01/30 11:02:13;;;;;;;38.27;10.67;;;;;;;;;;5050501;28;20456;-82
2022/01/30 11:04:41;;;;;;;26.07;7.20;;;;;;;;;;5049652;28;20468;-82
2022/01/30 11:07:08;;;;;;;35.30;10.10;;;;;;;;;;5047093;28;21209;-82
2022/01/30 11:09:38;;;;;;;36.87;10.33;;;;;;;;;;5049708;28;20476;-82
2022/01/30 11:12:08;;;;;;;25.80;8.03;;;;;;;;;;5048819;28;20440;-82
2022/01/30 11:14:38;;;;;;;38.50;9.07;;;;;;;;;;5048158;28;20495;-82
2022/01/30 11:17:07;;;;;;;28.43;9.00;;;;;;;;;;5050473;28;20487;-82
2022/01/30 11:19:35;;;;;;;38.57;9.97;;;;;;;;;;5049759;28;20477;-82
2022/01/30 11:22:03;;;;;;;44.77;10.30;;;;;;;;;;5050735;28;20593;-82
2022/01/30 11:24:33;;;;;;;32.50;11.57;;;;;;;;;;5051162;28;20550;-82
2022/01/30 11:27:00;;;;;;;36.17;8.70;;;;;;;;;;5050957;28;21204;-82
2022/01/30 11:29:26;;;;;;;46.30;9.37;;;;;;;;;;5049149;28;21005;-82
2022/01/30 11:31:54;;;;;;;43.07;10.10;;;;;;;;;;5049274;28;20804;-82
2022/01/30 11:34:20;;;;;;;31.40;8.77;;;;;;;;;;5051086;28;20594;-80
2022/01/30 11:36:48;;;;;;;32.83;8.80;;;;;;;;;;5051044;28;21075;-82
2022/01/30 11:39:19;;;;;;;39.77;9.57;;;;;;;;;;5051041;28;20480;-83
2022/01/30 11:42:06;;;;;;;39.53;9.57;;;;;;;;;;5050272;28;20475;-81
2022/01/30 11:44:33;;;;;;;31.87;9.07;;;;;;;;;;5044945;28;21000;-82
2022/01/30 11:47:18;;;;;;;42.50;8.83;;;;;;;;;;5052422;28;20480;-82
2022/01/30 11:49:47;;;;;;;33.60;9.17;;;;;;;;;;5047494;28;20525;-82
2022/01/30 11:52:14;;;;;;;36.43;9.30;;;;;;;;;;5051387;28;20452;-82
2022/01/30 11:54:43;;;;;;;33.83;9.47;;;;;;;;;;5048998;28;20464;-82
2022/01/30 11:57:24;;;;;;;47.63;10.50;;;;;;;;;;5048633;28;21051;-81
2022/01/30 11:59:51;;;;;;;30.00;8.37;;;;;;;;;;5049669;28;20507;-82
2022/01/30 12:02:21;;;;;;;33.17;9.23;;;;;;;;;;5051306;28;20449;-81
2022/01/30 12:04:53;;;;;;;34.10;7.77;;;;;;;;;;5051313;28;20467;-82
2022/01/30 12:07:31;;;;;;;28.23;6.90;;;;;;;;;;5050926;28;20469;-81
2022/01/30 12:10:13;;;;;;;45.00;10.33;;;;;;;;;;5050830;28;20481;-82
2022/01/30 12:12:48;;;;;;;35.73;9.93;;;;;;;;;;5048674;28;20472;-82
2022/01/30 12:15:29;;;;;;;29.47;9.03;;;;;;;;;;5050319;28;20463;-82
2022/01/30 12:17:56;;;;;;;35.17;8.60;;;;;;;;;;5051036;28;20475;-82
2022/01/30 12:20:22;;;;;;;31.73;9.27;;;;;;;;;;5051010;28;20490;-82
2022/01/30 12:22:49;;;;;;;39.57;8.03;;;;;;;;;;5050126;28;20492;-81
2022/01/30 12:25:42;;;;;;;25.70;7.70;;;;;;;;;;5048761;28;20498;-82
2022/01/30 12:28:11;;;;;;;43.97;10.37;;;;;;;;;;5049005;28;20484;-82
2022/01/30 12:30:39;;;;;;;33.47;9.30;;;;;;;;;;5050820;28;20472;-82
2022/01/30 12:33:20;;;;;;;31.77;8.10;;;;;;;;;;5050819;28;20482;-82
2022/01/30 12:35:46;;;;;;;41.60;8.53;;;;;;;;;;5054885;28;20468;-82
2022/01/30 12:38:12;;;;;;;45.60;8.67;;;;;;;;;;5056072;28;20490;-82
2022/01/30 12:40:39;;;;;;;38.33;8.67;;;;;;;;;;5055677;28;21029;-82
2022/01/30 12:43:05;;;;;;;31.00;7.83;;;;;;;;;;5054062;28;20529;-81
2022/01/30 12:45:33;;;;;;;48.83;9.37;;;;;;;;;;5051097;28;20483;-81
2022/01/30 12:48:00;;;;;;;32.50;8.80;;;;;;;;;;5052784;28;20459;-81
2022/01/30 12:50:31;;;;;;;33.00;8.57;;;;;;;;;;5053650;28;20472;-82
2022/01/30 12:53:00;;;;;;;29.40;7.33;;;;;;;;;;5053242;28;20523;-81
2022/01/30 12:55:27;;;;;;;31.23;8.70;;;;;;;;;;5052214;28;20524;-82
2022/01/30 12:57:55;;;;;;;30.53;7.80;;;;;;;;;;5048962;28;20495;-84
2022/01/30 13:00:21;;;;;;;30.20;6.57;;;;;;;;;;5052121;28;20476;-83
2022/01/30 13:02:56;;;;;;;37.97;7.20;;;;;;;;;;5051540;28;20455;-81
2022/01/30 13:05:23;;;;;;;37.03;9.23;;;;;;;;;;5051636;28;20480;-81
2022/01/30 13:07:51;;;;;;;45.47;8.10;;;;;;;;;;5051044;28;20468;-83
2022/01/30 13:10:17;;;;;;;38.83;8.93;;;;;;;;;;5050298;28;20506;-83
2022/01/30 13:12:45;;;;;;;23.13;7.30;;;;;;;;;;5049665;28;20452;-82
2022/01/30 13:15:12;;;;;;;29.63;6.97;;;;;;;;;;5048987;28;20468;-82
2022/01/30 13:17:38;;;;;;;31.40;7.20;;;;;;;;;;5049726;28;20543;-82
2022/01/30 13:20:07;;;;;;;40.60;9.80;;;;;;;;;;5049671;28;20476;-82
2022/01/30 13:22:34;;;;;;;25.27;5.57;;;;;;;;;;5051841;28;20486;-82
2022/01/30 13:25:02;;;;;;;23.27;6.57;;;;;;;;;;5050773;28;20487;-82
2022/01/30 13:27:28;;;;;;;27.70;7.57;;;;;;;;;;5051821;28;20495;-81
2022/01/30 13:29:54;;;;;;;34.73;8.13;;;;;;;;;;5048569;28;20585;-80
2022/01/30 13:32:23;;;;;;;47.10;10.27;;;;;;;;;;5051239;28;20449;-81
2022/01/30 13:34:49;;;;;;;31.23;7.47;;;;;;;;;;5049600;28;20820;-81
2022/01/30 13:37:19;;;;;;;38.97;8.10;;;;;;;;;;5051897;28;20479;-81
2022/01/30 13:39:48;;;;;;;34.73;7.67;;;;;;;;;;5050392;28;20477;-81
2022/01/30 13:48:00;;;;;;;29.03;7.97;;;;;;;;;;5051461;28;20479;-79
2022/01/30 13:50:27;;;;;;;35.17;9.20;;;;;;;;;;5051656;28;20835;-81
2022/01/30 13:53:01;;;;;;;34.03;7.90;;;;;;;;;;5051614;28;20447;-82
2022/01/30 13:55:28;;;;;;;25.33;6.10;;;;;;;;;;5049189;28;20522;-81
2022/01/30 13:57:57;;;;;;;25.00;7.60;;;;;;;;;;5050648;28;20472;-81
2022/01/30 14:00:23;;;;;;;22.07;6.17;;;;;;;;;;5050544;28;20900;-81
2022/01/30 14:02:53;;;;;;;24.50;6.50;;;;;;;;;;5048502;28;20915;-82
2022/01/30 14:05:26;;;;;;;34.03;8.33;;;;;;;;;;5050198;28;20915;-80
2022/01/30 14:07:53;;;;;;;21.70;6.00;;;;;;;;;;5050573;28;20471;-80
2022/01/30 14:10:22;;;;;;;37.27;7.27;;;;;;;;;;5047118;28;20899;-82
2022/01/30 14:12:49;;;;;;;27.23;9.53;;;;;;;;;;5048382;28;20550;-83
2022/01/30 14:15:19;;;;;;;31.63;7.93;;;;;;;;;;5048827;28;20483;-83
2022/01/30 14:17:45;;;;;;;27.23;5.63;;;;;;;;;;5065473;22;20486;-84
2022/01/30 14:20:13;;;;;;;22.73;6.00;;;;;;;;;;5071043;28;20475;-83
2022/01/30 14:22:39;;;;;;;23.60;6.50;;;;;;;;;;5073501;28;20845;-82
2022/01/30 14:25:07;;;;;;;27.47;6.33;;;;;;;;;;5076230;28;20506;-83
2022/01/30 14:27:36;;;;;;;22.40;6.70;;;;;;;;;;5071396;28;20880;-84
2022/01/30 14:30:05;;;;;;;30.83;6.70;;;;;;;;;;5079144;28;20853;-85
2022/01/30 14:32:33;;;;;;;28.97;6.93;;;;;;;;;;5080498;28;20455;-84
2022/01/30 14:35:00;;;;;;;31.60;6.67;;;;;;;;;;5079054;28;20481;-87
2022/01/30 14:37:26;;;;;;;28.33;6.50;;;;;;;;;;5077084;28;20539;-85
2022/01/30 14:39:54;;;;;;;37.00;8.90;;;;;;;;;;5079050;28;20471;-85
2022/01/30 14:42:20;;;;;;;25.23;7.13;;;;;;;;;;5079633;28;20450;-84
2022/01/30 14:44:47;;;;;;;16.40;6.63;;;;;;;;;;5078909;28;20501;-85
2022/01/30 14:47:14;;;;;;;28.33;8.53;;;;;;;;;;5080977;28;20442;-84
2022/01/30 14:49:41;;;;;;;23.43;6.73;;;;;;;;;;5078902;28;20899;-86
2022/01/30 14:52:07;;;;;;;24.33;6.33;;;;;;;;;;5079661;28;21059;-84
2022/01/30 14:54:34;;;;;;;32.20;9.50;;;;;;;;;;5078059;28;20470;-84
2022/01/30 14:57:01;;;;;;;28.50;7.50;;;;;;;;;;5077134;28;20462;-83
2022/01/30 14:59:27;;;;;;;33.23;7.40;;;;;;;;;;5080459;28;20472;-84
2022/01/30 15:01:55;;;;;;;24.07;8.27;;;;;;;;;;5078856;28;20456;-83
2022/01/30 15:04:21;;;;;;;31.57;7.40;;;;;;;;;;5081658;28;20476;-84
2022/01/30 15:06:48;;;;;;;45.27;7.80;;;;;;;;;;5080005;28;20449;-85
2022/01/30 15:09:14;;;;;;;24.40;7.30;;;;;;;;;;5079790;28;20511;-83
2022/01/30 15:11:40;;;;;;;27.93;7.67;;;;;;;;;;5076995;28;20509;-83